Time;durP1;ratioP1;P1;durP2;ratioP2;P2;SDS_P1;SDS_P2;PMS_P1;PMS_P2;Temp;Humidity;BMP_temperature;BMP_pressure;BME280_temperature;BME280_humidity;BME280_pressure;Samples;Min_cycle;Max_cycle;Signal;HPM_P1;HPM_P2
2022/09/14 00:00:09;;;;;;;6.50;5.18;;;;;;;;;;5070127;28;20424;-71
2022/09/14 00:02:35;;;;;;;8.48;5.30;;;;;;;;;;5071362;28;20436;-73
2022/09/14 00:05:01;;;;;;;7.40;5.30;;;;;;;;;;5071554;28;20024;-72
2022/09/14 00:07:27;;;;;;;6.28;5.15;;;;;;;;;;5069121;28;20082;-69
2022/09/14 00:09:53;;;;;;;5.05;4.60;;;;;;;;;;5071198;28;20074;-73
2022/09/14 00:12:19;;;;;;;8.18;4.95;;;;;;;;;;5071544;28;20140;-72
2022/09/14 00:14:45;;;;;;;5.13;4.40;;;;;;;;;;5070768;28;20024;-72
2022/09/14 00:17:11;;;;;;;7.80;5.53;;;;;;;;;;5070373;28;20506;-69
2022/09/14 00:19:37;;;;;;;6.53;4.88;;;;;;;;;;5071196;28;20070;-73
2022/09/14 00:22:05;;;;;;;7.90;4.80;;;;;;;;;;5071194;28;20074;-72
2022/09/14 00:24:33;;;;;;;6.32;5.32;;;;;;;;;;5069638;28;20464;-72
2022/09/14 00:26:59;;;;;;;8.07;5.57;;;;;;;;;;5070636;28;20024;-71
2022/09/14 00:29:25;;;;;;;7.28;5.00;;;;;;;;;;5070231;28;20025;-69
2022/09/14 00:31:52;;;;;;;7.55;5.35;;;;;;;;;;5069713;28;20048;-71
2022/09/14 00:34:18;;;;;;;8.55;5.70;;;;;;;;;;5069670;28;20111;-71
2022/09/14 00:36:46;;;;;;;10.25;5.53;;;;;;;;;;5071026;28;20020;-71
2022/09/14 00:39:12;;;;;;;7.50;5.45;;;;;;;;;;5069765;28;20445;-70
2022/09/14 00:41:40;;;;;;;5.90;5.18;;;;;;;;;;5070946;28;20074;-73
2022/09/14 00:44:12;;;;;;;6.82;4.97;;;;;;;;;;5069728;28;20032;-72
2022/09/14 00:46:39;;;;;;;8.32;5.55;;;;;;;;;;5058088;28;20394;-71
2022/09/14 00:49:11;;;;;;;7.18;5.13;;;;;;;;;;5068741;28;20048;-73
2022/09/14 00:51:39;;;;;;;8.65;5.45;;;;;;;;;;5057773;28;20379;-73
2022/09/14 00:54:06;;;;;;;6.72;4.45;;;;;;;;;;5070895;28;20031;-72
2022/09/14 00:56:32;;;;;;;10.70;5.30;;;;;;;;;;5071077;28;20428;-73
2022/09/14 00:58:59;;;;;;;7.47;4.85;;;;;;;;;;5069904;28;20029;-72
2022/09/14 01:01:25;;;;;;;10.45;5.75;;;;;;;;;;5070432;28;20020;-71
2022/09/14 01:03:51;;;;;;;9.65;5.75;;;;;;;;;;5070949;28;20032;-72
2022/09/14 01:06:17;;;;;;;12.77;5.43;;;;;;;;;;5070301;28;20036;-71
2022/09/14 01:08:46;;;;;;;6.10;5.07;;;;;;;;;;5069765;28;20032;-71
2022/09/14 01:11:37;;;;;;;5.55;4.43;;;;;;;;;;5071295;28;20027;-71
2022/09/14 01:14:12;;;;;;;8.63;4.75;;;;;;;;;;5071614;28;20074;-71
2022/09/14 01:16:52;;;;;;;6.30;5.10;;;;;;;;;;5058695;28;20058;-71
2022/09/14 01:19:45;;;;;;;6.97;5.70;;;;;;;;;;5068874;28;20111;-71
2022/09/14 01:22:18;;;;;;;6.75;5.30;;;;;;;;;;5070757;28;20055;-71
2022/09/14 01:24:45;;;;;;;8.00;5.00;;;;;;;;;;5070541;28;20023;-71
2022/09/14 01:27:31;;;;;;;7.18;5.32;;;;;;;;;;5070942;28;20059;-70
2022/09/14 01:30:01;;;;;;;5.93;5.25;;;;;;;;;;5061544;28;20571;-72
2022/09/14 01:32:31;;;;;;;6.53;5.75;;;;;;;;;;5074855;28;20067;-69
2022/09/14 01:35:03;;;;;;;13.00;6.38;;;;;;;;;;5078259;28;20021;-71
2022/09/14 01:37:38;;;;;;;9.00;5.82;;;;;;;;;;5075939;28;20035;-72
2022/09/14 01:40:08;;;;;;;10.05;7.18;;;;;;;;;;5077393;28;20025;-70
2022/09/14 01:42:34;;;;;;;11.30;6.47;;;;;;;;;;5073413;28;20017;-71
2022/09/14 01:45:02;;;;;;;8.50;6.15;;;;;;;;;;5072380;28;20021;-72
2022/09/14 01:47:51;;;;;;;5.97;5.20;;;;;;;;;;5071284;28;20027;-73
2022/09/14 01:50:41;;;;;;;9.73;5.88;;;;;;;;;;5066667;28;20032;-71
2022/09/14 01:53:10;;;;;;;8.63;6.05;;;;;;;;;;5063603;28;20398;-73
2022/09/14 01:55:38;;;;;;;8.57;6.25;;;;;;;;;;5073835;28;20374;-72
2022/09/14 01:58:10;;;;;;;7.90;6.45;;;;;;;;;;5071419;28;20046;-71
2022/09/14 02:00:37;;;;;;;6.78;6.07;;;;;;;;;;5073872;28;20107;-72
2022/09/14 02:03:12;;;;;;;7.13;5.25;;;;;;;;;;5072554;28;20498;-71
2022/09/14 02:05:55;;;;;;;6.10;4.95;;;;;;;;;;5074789;28;20074;-70
2022/09/14 02:08:22;;;;;;;7.15;5.05;;;;;;;;;;5054370;28;20025;-70
2022/09/14 02:10:48;;;;;;;6.45;5.80;;;;;;;;;;5072799;28;20044;-72
2022/09/14 02:13:14;;;;;;;5.65;4.95;;;;;;;;;;5074499;28;20386;-72
2022/09/14 02:15:40;;;;;;;5.20;4.60;;;;;;;;;;5074163;28;20025;-71
2022/09/14 02:18:06;;;;;;;5.20;4.70;;;;;;;;;;5072147;28;20032;-69
2022/09/14 02:20:39;;;;;;;5.28;4.75;;;;;;;;;;5074204;28;20025;-72
2022/09/14 02:23:05;;;;;;;6.20;4.78;;;;;;;;;;5073872;28;20016;-71
2022/09/14 02:25:31;;;;;;;6.45;4.93;;;;;;;;;;5073428;28;20028;-72
2022/09/14 02:27:57;;;;;;;6.15;5.13;;;;;;;;;;5075274;28;20021;-72
2022/09/14 02:30:23;;;;;;;6.78;4.50;;;;;;;;;;5076237;28;20028;-72
2022/09/14 02:32:57;;;;;;;9.43;6.45;;;;;;;;;;5074783;28;20074;-72
2022/09/14 02:35:23;;;;;;;7.07;5.00;;;;;;;;;;5075575;28;20513;-70
2022/09/14 02:38:07;;;;;;;5.68;5.15;;;;;;;;;;5074521;28;20020;-73
2022/09/14 02:40:59;;;;;;;5.80;5.20;;;;;;;;;;5072464;28;20436;-72
2022/09/14 02:43:25;;;;;;;6.55;4.85;;;;;;;;;;5068710;28;20033;-72
2022/09/14 02:46:04;;;;;;;7.03;5.30;;;;;;;;;;5068552;28;20078;-72
2022/09/14 02:48:48;;;;;;;8.27;5.20;;;;;;;;;;5071729;28;20032;-69
2022/09/14 02:51:20;;;;;;;6.38;5.65;;;;;;;;;;5071307;28;20055;-72
2022/09/14 02:54:02;;;;;;;6.43;5.57;;;;;;;;;;5071632;28;20021;-70
2022/09/14 02:56:28;;;;;;;8.48;5.35;;;;;;;;;;5071293;28;20368;-70
2022/09/14 02:58:54;;;;;;;6.68;4.93;;;;;;;;;;5071410;28;20115;-74
2022/09/14 03:01:21;;;;;;;5.82;5.25;;;;;;;;;;5063128;28;20020;-73
2022/09/14 03:03:47;;;;;;;6.00;5.30;;;;;;;;;;5066512;28;20508;-73
2022/09/14 03:06:13;;;;;;;6.03;5.20;;;;;;;;;;5072136;28;20021;-69
2022/09/14 03:08:39;;;;;;;5.43;4.80;;;;;;;;;;5066986;28;20471;-72
2022/09/14 03:11:05;;;;;;;7.35;5.32;;;;;;;;;;5068284;28;20035;-70
2022/09/14 03:13:33;;;;;;;7.18;5.15;;;;;;;;;;5070978;28;20028;-71
2022/09/14 03:16:03;;;;;;;6.55;5.40;;;;;;;;;;5071156;28;20390;-69
2022/09/14 03:18:29;;;;;;;6.15;5.43;;;;;;;;;;5085258;22;20089;-72
2022/09/14 03:21:01;;;;;;;12.65;6.07;;;;;;;;;;5068749;28;20033;-72
2022/09/14 03:23:27;;;;;;;5.90;4.65;;;;;;;;;;5050294;28;20280;-71
2022/09/14 03:25:53;;;;;;;6.57;4.97;;;;;;;;;;5049879;28;20556;-71
2022/09/14 03:28:19;;;;;;;7.88;5.40;;;;;;;;;;5049785;28;20025;-72
2022/09/14 03:30:45;;;;;;;9.18;5.72;;;;;;;;;;5070711;28;20020;-72
2022/09/14 03:33:12;;;;;;;6.18;5.35;;;;;;;;;;5071704;28;20066;-72
2022/09/14 03:35:38;;;;;;;9.13;5.35;;;;;;;;;;5070736;28;20020;-72
2022/09/14 03:38:04;;;;;;;12.68;5.40;;;;;;;;;;5071010;28;20093;-72
2022/09/14 03:40:30;;;;;;;10.55;6.18;;;;;;;;;;5071537;28;20020;-73
2022/09/14 03:42:56;;;;;;;11.10;5.72;;;;;;;;;;5071418;28;20537;-72
2022/09/14 03:45:22;;;;;;;8.10;6.05;;;;;;;;;;5071694;28;20031;-73
2022/09/14 03:47:49;;;;;;;5.85;5.25;;;;;;;;;;5069170;28;20024;-72
2022/09/14 03:50:15;;;;;;;7.43;5.07;;;;;;;;;;5069860;28;20027;-72
2022/09/14 03:52:41;;;;;;;5.57;5.07;;;;;;;;;;5071419;28;20108;-72
2022/09/14 03:55:08;;;;;;;8.23;5.18;;;;;;;;;;5071361;28;20036;-72
2022/09/14 03:57:34;;;;;;;5.95;5.35;;;;;;;;;;5070496;28;20024;-72
2022/09/14 04:00:00;;;;;;;5.85;4.90;;;;;;;;;;5071369;28;20474;-72
2022/09/14 04:02:28;;;;;;;7.88;4.85;;;;;;;;;;5071386;28;20036;-73
2022/09/14 04:04:54;;;;;;;9.63;6.30;;;;;;;;;;5070062;28;20151;-72
2022/09/14 04:07:20;;;;;;;6.60;5.80;;;;;;;;;;5070591;28;20070;-73
2022/09/14 04:09:46;;;;;;;8.02;6.20;;;;;;;;;;5070814;28;20028;-72
2022/09/14 04:12:12;;;;;;;11.15;6.55;;;;;;;;;;5071373;28;20029;-72
2022/09/14 04:14:38;;;;;;;6.90;6.20;;;;;;;;;;5070994;28;20074;-72
2022/09/14 04:17:04;;;;;;;13.95;6.65;;;;;;;;;;5070948;28;20443;-72
2022/09/14 04:19:32;;;;;;;9.88;6.18;;;;;;;;;;5070550;28;20107;-72
2022/09/14 04:21:57;;;;;;;8.77;6.38;;;;;;;;;;5071155;28;20055;-72
2022/09/14 04:24:23;;;;;;;9.00;6.60;;;;;;;;;;5070651;28;20052;-72
2022/09/14 04:26:50;;;;;;;9.60;6.20;;;;;;;;;;5070972;28;20041;-71
2022/09/14 04:29:16;;;;;;;12.02;6.32;;;;;;;;;;5070048;28;20031;-72
2022/09/14 04:31:42;;;;;;;7.20;6.13;;;;;;;;;;5070846;28;20021;-71
2022/09/14 04:34:10;;;;;;;9.10;6.05;;;;;;;;;;5070633;28;20021;-72
2022/09/14 04:36:35;;;;;;;8.38;5.90;;;;;;;;;;5070981;28;20040;-72
2022/09/14 04:39:02;;;;;;;8.93;5.78;;;;;;;;;;5069692;28;20442;-72
2022/09/14 04:41:29;;;;;;;8.82;6.13;;;;;;;;;;5070943;28;20032;-72
2022/09/14 04:43:56;;;;;;;6.57;5.50;;;;;;;;;;5065952;28;20036;-72
2022/09/14 04:46:23;;;;;;;8.80;5.60;;;;;;;;;;5069306;28;20021;-72
2022/09/14 04:48:49;;;;;;;8.75;6.05;;;;;;;;;;5069521;28;20082;-73
2022/09/14 04:51:17;;;;;;;8.32;5.65;;;;;;;;;;5070603;28;20017;-72
2022/09/14 04:53:43;;;;;;;9.43;6.80;;;;;;;;;;5070879;28;21135;-72
2022/09/14 04:56:10;;;;;;;7.78;6.35;;;;;;;;;;5068847;28;20020;-72
2022/09/14 04:58:40;;;;;;;8.18;6.05;;;;;;;;;;5069754;28;20032;-73
2022/09/14 05:01:08;;;;;;;7.88;6.25;;;;;;;;;;5070435;28;20020;-73
2022/09/14 05:03:37;;;;;;;10.20;7.18;;;;;;;;;;5074277;28;20095;-73
2022/09/14 05:06:04;;;;;;;9.75;7.05;;;;;;;;;;5074201;28;20020;-73
2022/09/14 05:08:30;;;;;;;8.23;6.72;;;;;;;;;;5073842;28;20383;-72
2022/09/14 05:10:57;;;;;;;7.05;6.28;;;;;;;;;;5074485;28;20493;-72
2022/09/14 05:13:23;;;;;;;8.70;6.22;;;;;;;;;;5074470;28;20035;-72
2022/09/14 05:15:50;;;;;;;7.93;6.47;;;;;;;;;;5074103;28;20021;-73
2022/09/14 05:18:16;;;;;;;12.27;6.72;;;;;;;;;;5072087;28;20032;-73
2022/09/14 05:20:42;;;;;;;10.95;7.07;;;;;;;;;;5074391;28;20024;-73
2022/09/14 05:23:08;;;;;;;13.50;7.70;;;;;;;;;;5072454;28;20064;-72
2022/09/14 05:25:34;;;;;;;8.93;7.30;;;;;;;;;;5074116;28;20059;-73
2022/09/14 05:28:00;;;;;;;13.02;7.45;;;;;;;;;;5071575;28;20454;-73
2022/09/14 05:30:26;;;;;;;14.00;7.05;;;;;;;;;;5074180;28;20016;-73
2022/09/14 05:32:52;;;;;;;18.08;14.30;;;;;;;;;;5074317;28;20157;-73
2022/09/14 05:35:18;;;;;;;17.35;11.10;;;;;;;;;;5074054;28;20033;-73
2022/09/14 05:37:44;;;;;;;17.88;13.55;;;;;;;;;;5073008;28;20471;-73
2022/09/14 05:40:13;;;;;;;13.43;11.10;;;;;;;;;;5089577;28;20075;-74
2022/09/14 05:42:39;;;;;;;11.43;8.57;;;;;;;;;;5089093;28;20500;-72
2022/09/14 05:45:05;;;;;;;14.40;7.63;;;;;;;;;;5074064;28;20032;-72
2022/09/14 05:47:31;;;;;;;10.48;8.02;;;;;;;;;;5072645;28;20078;-72
2022/09/14 05:49:57;;;;;;;11.88;7.70;;;;;;;;;;5074021;28;20493;-72
2022/09/14 05:52:23;;;;;;;15.05;7.55;;;;;;;;;;5073693;28;20029;-72
2022/09/14 05:54:49;;;;;;;7.97;7.13;;;;;;;;;;5072047;28;20040;-72
2022/09/14 05:57:15;;;;;;;11.20;7.45;;;;;;;;;;5071532;28;20060;-72
2022/09/14 05:59:41;;;;;;;15.82;7.90;;;;;;;;;;5072831;28;20162;-72
2022/09/14 06:02:08;;;;;;;11.57;7.60;;;;;;;;;;5073062;28;20391;-72
2022/09/14 06:04:35;;;;;;;12.85;7.85;;;;;;;;;;5073129;28;20074;-72
2022/09/14 06:07:01;;;;;;;11.25;7.85;;;;;;;;;;5073056;28;20462;-72
2022/09/14 06:09:28;;;;;;;10.40;7.15;;;;;;;;;;5072666;28;20040;-72
2022/09/14 06:11:54;;;;;;;7.78;6.78;;;;;;;;;;5073592;28;20078;-72
2022/09/14 06:14:20;;;;;;;12.80;7.00;;;;;;;;;;5072785;28;20024;-72
2022/09/14 06:16:46;;;;;;;9.50;6.07;;;;;;;;;;5072954;28;20021;-72
2022/09/14 06:19:14;;;;;;;9.68;6.47;;;;;;;;;;5070714;28;20075;-73
2022/09/14 06:21:40;;;;;;;8.77;6.32;;;;;;;;;;5073177;28;20017;-73
2022/09/14 06:24:06;;;;;;;7.28;6.30;;;;;;;;;;5073422;28;20027;-73
2022/09/14 06:26:32;;;;;;;10.35;6.13;;;;;;;;;;5059432;28;20074;-73
2022/09/14 06:28:58;;;;;;;10.23;6.60;;;;;;;;;;5071983;28;20024;-72
2022/09/14 06:31:24;;;;;;;12.77;6.53;;;;;;;;;;5072658;28;20500;-72
2022/09/14 06:33:51;;;;;;;8.45;7.40;;;;;;;;;;5072861;28;20016;-73
2022/09/14 06:36:18;;;;;;;13.13;7.70;;;;;;;;;;5071354;28;20024;-72
2022/09/14 06:38:45;;;;;;;9.90;6.85;;;;;;;;;;5072059;28;20510;-73
2022/09/14 06:41:12;;;;;;;10.32;7.10;;;;;;;;;;5071233;28;20151;-72
2022/09/14 06:43:39;;;;;;;13.00;7.13;;;;;;;;;;5068046;28;20033;-72
2022/09/14 06:46:05;;;;;;;10.60;7.78;;;;;;;;;;5068777;28;20029;-73
2022/09/14 06:48:33;;;;;;;8.05;6.82;;;;;;;;;;5071631;28;20028;-72
2022/09/14 06:50:59;;;;;;;15.55;7.85;;;;;;;;;;5072596;28;20104;-72
2022/09/14 06:53:25;;;;;;;10.02;7.43;;;;;;;;;;5072636;28;20036;-73
2022/09/14 06:55:51;;;;;;;11.88;7.53;;;;;;;;;;5072452;28;20028;-73
2022/09/14 06:58:17;;;;;;;11.52;7.40;;;;;;;;;;5071679;28;20103;-73
2022/09/14 07:00:43;;;;;;;12.30;7.75;;;;;;;;;;5073590;28;20114;-74
2022/09/14 07:03:09;;;;;;;10.27;6.50;;;;;;;;;;5073452;28;20032;-73
2022/09/14 07:05:35;;;;;;;10.10;7.10;;;;;;;;;;5071334;28;20112;-73
2022/09/14 07:08:01;;;;;;;7.97;6.88;;;;;;;;;;5071110;28;20043;-74
2022/09/14 07:10:27;;;;;;;11.05;6.97;;;;;;;;;;5072568;28;20096;-73
2022/09/14 07:12:54;;;;;;;10.65;6.85;;;;;;;;;;5072079;28;20517;-73
2022/09/14 07:15:20;;;;;;;12.18;6.70;;;;;;;;;;5070131;28;20028;-73
2022/09/14 07:17:46;;;;;;;7.97;6.03;;;;;;;;;;5070791;28;20163;-73
2022/09/14 07:20:14;;;;;;;8.65;6.45;;;;;;;;;;5071952;28;20533;-74
2022/09/14 07:22:40;;;;;;;8.18;6.53;;;;;;;;;;5071748;28;20474;-74
2022/09/14 07:25:07;;;;;;;14.18;8.15;;;;;;;;;;5071401;28;20267;-74
2022/09/14 07:27:33;;;;;;;10.93;7.75;;;;;;;;;;5071111;28;20385;-72
2022/09/14 07:29:59;;;;;;;9.95;7.22;;;;;;;;;;5070788;28;20033;-74
2022/09/14 07:32:25;;;;;;;9.82;7.82;;;;;;;;;;5070107;28;20446;-73
2022/09/14 07:34:51;;;;;;;9.32;7.70;;;;;;;;;;5069625;28;20050;-73
2022/09/14 07:37:17;;;;;;;8.90;8.00;;;;;;;;;;5070798;28;20020;-73
2022/09/14 07:39:43;;;;;;;11.18;8.60;;;;;;;;;;5071324;28;20478;-74
2022/09/14 07:42:09;;;;;;;13.90;8.90;;;;;;;;;;5069110;28;20024;-73
2022/09/14 07:44:35;;;;;;;13.18;9.10;;;;;;;;;;5071185;28;20027;-73
2022/09/14 07:47:01;;;;;;;16.55;9.95;;;;;;;;;;5071117;28;20039;-73
2022/09/14 07:49:27;;;;;;;15.02;9.52;;;;;;;;;;5070654;28;20569;-73
2022/09/14 07:51:53;;;;;;;14.38;11.40;;;;;;;;;;5071348;28;20047;-72
2022/09/14 07:54:19;;;;;;;12.88;10.52;;;;;;;;;;5070842;28;20027;-73
2022/09/14 07:56:48;;;;;;;15.27;10.70;;;;;;;;;;5069717;28;20021;-73
2022/09/14 07:59:14;;;;;;;16.60;11.98;;;;;;;;;;5068247;28;20027;-73
2022/09/14 08:01:40;;;;;;;14.32;11.32;;;;;;;;;;5069851;28;20013;-73
2022/09/14 08:04:08;;;;;;;14.90;11.13;;;;;;;;;;5070056;28;20478;-73
2022/09/14 08:06:35;;;;;;;16.42;11.18;;;;;;;;;;5069776;28;20017;-73
2022/09/14 08:09:04;;;;;;;18.60;12.55;;;;;;;;;;5069228;28;20390;-72
2022/09/14 08:11:31;;;;;;;17.92;12.32;;;;;;;;;;5070301;28;20092;-72
2022/09/14 08:14:02;;;;;;;15.35;12.43;;;;;;;;;;5071172;28;20020;-72
2022/09/14 08:16:29;;;;;;;16.55;13.93;;;;;;;;;;5071016;28;20032;-72
2022/09/14 08:18:56;;;;;;;16.55;12.73;;;;;;;;;;5070231;28;20090;-73
2022/09/14 08:21:22;;;;;;;17.23;12.82;;;;;;;;;;5071200;28;20104;-73
2022/09/14 08:23:48;;;;;;;18.80;13.50;;;;;;;;;;5070842;28;20116;-73
2022/09/14 08:26:21;;;;;;;15.68;13.57;;;;;;;;;;5070917;28;20107;-72
2022/09/14 08:28:48;;;;;;;23.35;13.07;;;;;;;;;;5070445;28;20032;-73
2022/09/14 08:31:15;;;;;;;16.73;11.75;;;;;;;;;;5070004;28;20070;-73
2022/09/14 08:33:43;;;;;;;16.20;12.35;;;;;;;;;;5084530;28;20028;-73
2022/09/14 08:36:09;;;;;;;15.75;11.90;;;;;;;;;;5068564;28;20044;-73
2022/09/14 08:38:35;;;;;;;17.75;13.18;;;;;;;;;;5068613;28;20481;-73
2022/09/14 08:41:08;;;;;;;20.65;13.63;;;;;;;;;;5069389;28;20172;-73
2022/09/14 08:43:35;;;;;;;20.45;13.13;;;;;;;;;;5069758;28;20496;-73
2022/09/14 08:46:03;;;;;;;20.42;14.77;;;;;;;;;;5069661;28;20351;-73
2022/09/14 08:48:37;;;;;;;19.92;13.15;;;;;;;;;;5085415;28;20039;-73
2022/09/14 08:51:04;;;;;;;20.23;13.40;;;;;;;;;;5070555;28;20100;-73
2022/09/14 08:53:30;;;;;;;18.92;14.32;;;;;;;;;;5070871;28;20038;-72
2022/09/14 08:56:01;;;;;;;21.60;13.93;;;;;;;;;;5085814;28;20025;-74
2022/09/14 08:58:46;;;;;;;22.10;14.07;;;;;;;;;;5069511;28;20036;-72
2022/09/14 09:01:20;;;;;;;17.10;14.20;;;;;;;;;;5070206;28;20410;-73
2022/09/14 09:04:11;;;;;;;19.38;13.70;;;;;;;;;;5070894;28;20043;-72
2022/09/14 09:06:40;;;;;;;17.95;14.77;;;;;;;;;;5057588;28;20081;-73
2022/09/14 09:09:17;;;;;;;21.55;16.95;;;;;;;;;;5069739;28;20032;-73
2022/09/14 09:11:45;;;;;;;20.38;15.48;;;;;;;;;;5058371;28;20020;-71
2022/09/14 09:14:17;;;;;;;24.42;16.27;;;;;;;;;;5070383;28;20035;-72
2022/09/14 09:16:44;;;;;;;21.17;15.95;;;;;;;;;;5070475;28;20020;-72
2022/09/14 09:19:15;;;;;;;24.08;17.20;;;;;;;;;;5092681;22;20055;-72
2022/09/14 09:21:43;;;;;;;22.02;16.77;;;;;;;;;;5070908;28;20024;-71
2022/09/14 09:24:28;;;;;;;21.58;16.45;;;;;;;;;;5070273;28;20395;-72
2022/09/14 09:26:54;;;;;;;22.10;17.90;;;;;;;;;;5070635;28;20078;-72
2022/09/14 09:29:20;;;;;;;25.42;18.27;;;;;;;;;;5067950;28;20029;-69
2022/09/14 09:31:48;;;;;;;27.38;19.08;;;;;;;;;;5050703;28;20386;-71
2022/09/14 09:34:15;;;;;;;22.35;17.67;;;;;;;;;;5050357;28;20021;-71
2022/09/14 09:36:46;;;;;;;24.95;18.27;;;;;;;;;;5048969;28;20501;-72
2022/09/14 09:39:12;;;;;;;21.00;17.92;;;;;;;;;;5050635;28;20029;-71
2022/09/14 09:41:48;;;;;;;26.70;22.30;;;;;;;;;;5053464;28;20021;-72
2022/09/14 09:44:15;;;;;;;28.10;19.33;;;;;;;;;;5066000;28;20067;-70
2022/09/14 09:46:50;;;;;;;23.48;17.52;;;;;;;;;;5055612;28;20017;-72
2022/09/14 09:49:25;;;;;;;23.48;17.67;;;;;;;;;;5059873;28;20029;-72
2022/09/14 09:51:52;;;;;;;28.15;21.15;;;;;;;;;;5060516;28;20029;-71
2022/09/14 09:54:22;;;;;;;23.60;18.00;;;;;;;;;;5061527;28;20100;-73
2022/09/14 09:56:59;;;;;;;23.77;18.10;;;;;;;;;;5058164;28;20017;-72
2022/09/14 09:59:30;;;;;;;22.63;18.00;;;;;;;;;;5066991;28;20487;-72
2022/09/14 10:02:13;;;;;;;24.45;17.67;;;;;;;;;;5053582;28;20108;-72
2022/09/14 10:04:55;;;;;;;23.73;18.17;;;;;;;;;;5052394;28;20167;-73
2022/09/14 10:07:21;;;;;;;21.25;17.33;;;;;;;;;;5052983;28;20079;-72
2022/09/14 10:09:56;;;;;;;19.52;16.52;;;;;;;;;;5053231;28;20024;-73
2022/09/14 10:12:22;;;;;;;21.08;16.50;;;;;;;;;;5053333;28;20404;-72
2022/09/14 10:15:07;;;;;;;23.10;15.70;;;;;;;;;;5053193;28;20013;-72
2022/09/14 10:17:33;;;;;;;21.17;18.08;;;;;;;;;;5052843;28;20029;-72
2022/09/14 10:19:59;;;;;;;19.23;16.33;;;;;;;;;;5053714;28;20641;-73
2022/09/14 10:22:29;;;;;;;22.27;16.50;;;;;;;;;;5053901;28;20017;-70
2022/09/14 10:25:04;;;;;;;21.00;17.25;;;;;;;;;;5065415;28;20057;-71
2022/09/14 10:27:40;;;;;;;22.77;17.02;;;;;;;;;;5052969;28;20021;-72
2022/09/14 10:30:12;;;;;;;17.55;15.18;;;;;;;;;;5059979;28;20029;-73
2022/09/14 10:32:38;;;;;;;17.17;15.35;;;;;;;;;;5053104;28;20013;-74
2022/09/14 10:35:11;;;;;;;23.08;16.10;;;;;;;;;;5052713;28;20387;-72
2022/09/14 10:37:40;;;;;;;18.35;13.65;;;;;;;;;;5050974;28;20029;-72
2022/09/14 10:40:06;;;;;;;19.42;15.63;;;;;;;;;;5051674;28;20029;-72
2022/09/14 10:42:50;;;;;;;21.83;15.43;;;;;;;;;;5058632;28;20050;-71
2022/09/14 10:45:18;;;;;;;19.02;16.05;;;;;;;;;;5062622;28;20058;-73
2022/09/14 10:47:47;;;;;;;16.30;12.80;;;;;;;;;;5061123;28;20111;-72
2022/09/14 10:50:32;;;;;;;16.67;12.77;;;;;;;;;;5052731;28;20104;-72
2022/09/14 10:53:07;;;;;;;17.50;13.85;;;;;;;;;;5052929;28;20021;-72
2022/09/14 10:55:54;;;;;;;17.67;14.32;;;;;;;;;;5053385;28;20036;-73
2022/09/14 10:58:26;;;;;;;19.25;15.38;;;;;;;;;;5059968;28;20012;-72
2022/09/14 11:00:52;;;;;;;20.45;14.90;;;;;;;;;;5061023;28;20025;-72
2022/09/14 11:03:34;;;;;;;19.40;14.18;;;;;;;;;;5052806;28;20028;-71
2022/09/14 11:06:24;;;;;;;18.38;15.70;;;;;;;;;;5052488;28;20029;-72
2022/09/14 11:08:55;;;;;;;20.20;16.23;;;;;;;;;;5051692;28;20025;-70
2022/09/14 11:11:21;;;;;;;19.58;17.00;;;;;;;;;;5052999;28;20440;-73
2022/09/14 11:13:47;;;;;;;19.52;17.23;;;;;;;;;;5060328;28;20012;-71
2022/09/14 11:16:19;;;;;;;22.48;18.23;;;;;;;;;;5068146;28;20021;-72
2022/09/14 11:18:45;;;;;;;20.02;17.70;;;;;;;;;;5065925;28;20031;-72
2022/09/14 11:21:11;;;;;;;23.13;19.35;;;;;;;;;;5053997;28;20025;-71
2022/09/14 11:23:43;;;;;;;24.55;20.33;;;;;;;;;;5052106;28;20102;-72
2022/09/14 11:26:18;;;;;;;28.35;21.40;;;;;;;;;;5052174;28;20087;-72
2022/09/14 11:28:50;;;;;;;28.02;23.02;;;;;;;;;;5056009;28;20028;-71
2022/09/14 11:31:25;;;;;;;28.17;22.85;;;;;;;;;;5054947;28;20044;-71
2022/09/14 11:34:01;;;;;;;31.77;24.70;;;;;;;;;;5053950;28;20049;-72
2022/09/14 11:36:34;;;;;;;30.25;22.80;;;;;;;;;;5052960;28;20111;-72
2022/09/14 11:39:06;;;;;;;35.35;27.27;;;;;;;;;;5051651;28;20509;-71
2022/09/14 11:41:46;;;;;;;26.08;22.80;;;;;;;;;;5052339;28;20025;-72
2022/09/14 11:44:15;;;;;;;27.23;21.63;;;;;;;;;;5073470;28;20549;-72
2022/09/14 11:47:01;;;;;;;29.67;24.42;;;;;;;;;;5053820;28;20030;-70
2022/09/14 11:49:30;;;;;;;28.00;24.00;;;;;;;;;;5055365;28;20029;-72
2022/09/14 11:51:59;;;;;;;31.13;25.20;;;;;;;;;;5064926;28;20017;-71
2022/09/14 11:54:25;;;;;;;31.48;22.63;;;;;;;;;;5059713;28;20569;-72
2022/09/14 11:56:57;;;;;;;33.15;23.55;;;;;;;;;;5051531;28;20024;-68
2022/09/14 11:59:23;;;;;;;;;;;;;;;;;;5069410;28;20498;-73
2022/09/14 12:01:49;;;;;;;36.88;26.13;;;;;;;;;;5049931;28;19912;-72
2022/09/14 12:04:16;;;;;;;26.40;23.48;;;;;;;;;;5049420;28;20544;-69
2022/09/14 12:06:44;;;;;;;29.70;24.50;;;;;;;;;;5047957;28;20067;-71
2022/09/14 12:09:16;;;;;;;32.05;25.33;;;;;;;;;;5048740;28;20029;-72
2022/09/14 12:11:45;;;;;;;30.40;25.90;;;;;;;;;;5049358;28;20101;-73
2022/09/14 12:14:14;;;;;;;28.83;24.15;;;;;;;;;;5057782;28;20020;-72
2022/09/14 12:16:59;;;;;;;31.90;25.85;;;;;;;;;;5051192;28;20483;-72
2022/09/14 12:19:26;;;;;;;32.45;26.35;;;;;;;;;;5053383;28;20119;-69
2022/09/14 12:21:52;;;;;;;25.65;22.90;;;;;;;;;;5051381;28;20035;-72
2022/09/14 12:24:20;;;;;;;27.55;22.95;;;;;;;;;;5051037;28;20100;-71
2022/09/14 12:26:47;;;;;;;29.17;23.58;;;;;;;;;;5050964;28;20031;-73
2022/09/14 12:29:27;;;;;;;27.55;24.55;;;;;;;;;;5050726;28;20029;-71
2022/09/14 12:31:53;;;;;;;26.70;23.15;;;;;;;;;;5061474;28;20021;-72
2022/09/14 12:34:19;;;;;;;25.42;22.75;;;;;;;;;;5049353;28;20021;-73
2022/09/14 12:36:45;;;;;;;24.95;22.33;;;;;;;;;;5049411;28;20475;-73
2022/09/14 12:39:11;;;;;;;29.67;26.45;;;;;;;;;;5050018;28;20104;-70
2022/09/14 12:41:37;;;;;;;25.30;22.60;;;;;;;;;;5050872;28;20437;-72
2022/09/14 12:44:04;;;;;;;25.73;22.42;;;;;;;;;;5062105;28;20104;-72
2022/09/14 12:46:31;;;;;;;22.33;20.02;;;;;;;;;;5052479;28;20035;-72
2022/09/14 12:48:58;;;;;;;23.60;21.08;;;;;;;;;;5058189;28;20489;-71
2022/09/14 12:51:28;;;;;;;24.13;21.38;;;;;;;;;;5049476;28;20049;-73
2022/09/14 12:54:09;;;;;;;23.00;20.38;;;;;;;;;;5050675;28;20017;-70
2022/09/14 12:56:35;;;;;;;27.23;20.58;;;;;;;;;;5057162;28;20031;-71
2022/09/14 12:59:05;;;;;;;24.73;21.33;;;;;;;;;;5056087;28;20029;-70
2022/09/14 13:01:34;;;;;;;28.48;20.50;;;;;;;;;;5068195;28;20024;-71
2022/09/14 13:04:00;;;;;;;27.33;21.25;;;;;;;;;;5057093;28;20109;-71
2022/09/14 13:06:39;;;;;;;30.48;24.95;;;;;;;;;;5050204;28;20051;-71
2022/09/14 13:09:11;;;;;;;28.17;23.70;;;;;;;;;;5048263;28;20032;-72
2022/09/14 13:11:39;;;;;;;24.70;21.60;;;;;;;;;;5057700;28;20017;-73
2022/09/14 13:14:05;;;;;;;30.13;25.05;;;;;;;;;;5056136;28;20028;-71
2022/09/14 13:16:37;;;;;;;30.30;26.48;;;;;;;;;;5049832;28;20045;-71
2022/09/14 13:19:04;;;;;;;27.92;24.98;;;;;;;;;;5049814;28;20044;-73
2022/09/14 13:21:30;;;;;;;32.58;25.77;;;;;;;;;;5050508;28;20079;-73
2022/09/14 13:23:56;;;;;;;29.67;25.65;;;;;;;;;;5052527;28;20043;-72
2022/09/14 13:26:25;;;;;;;26.30;23.60;;;;;;;;;;5054042;28;20491;-72
2022/09/14 13:28:51;;;;;;;24.25;21.80;;;;;;;;;;5057959;28;20039;-69
2022/09/14 13:31:20;;;;;;;30.50;26.27;;;;;;;;;;5056069;28;20386;-72
2022/09/14 13:33:50;;;;;;;37.67;29.55;;;;;;;;;;5054076;28;20450;-71
2022/09/14 13:36:25;;;;;;;34.42;28.42;;;;;;;;;;5053679;28;20027;-72
2022/09/14 13:38:51;;;;;;;29.23;26.13;;;;;;;;;;5052985;28;20479;-71
2022/09/14 13:41:18;;;;;;;33.95;27.38;;;;;;;;;;5053889;28;20479;-74
2022/09/14 13:43:48;;;;;;;27.48;24.00;;;;;;;;;;5063516;28;20028;-72
2022/09/14 13:46:15;;;;;;;27.88;24.85;;;;;;;;;;5054190;28;20433;-72
2022/09/14 13:48:42;;;;;;;26.17;23.33;;;;;;;;;;5063016;28;20025;-71
2022/09/14 13:51:08;;;;;;;27.73;24.70;;;;;;;;;;5053705;28;20029;-70
2022/09/14 13:53:47;;;;;;;24.55;21.90;;;;;;;;;;5054256;28;20028;-70
2022/09/14 13:56:21;;;;;;;52.70;32.95;;;;;;;;;;5053601;28;20014;-71
2022/09/14 13:58:48;;;;;;;25.15;22.45;;;;;;;;;;5052931;28;20056;-72
2022/09/14 14:01:23;;;;;;;31.65;25.35;;;;;;;;;;5065793;28;20055;-71
2022/09/14 14:03:49;;;;;;;28.38;24.50;;;;;;;;;;5052479;28;20024;-71
2022/09/14 14:06:19;;;;;;;30.40;25.08;;;;;;;;;;5053530;28;20428;-70
2022/09/14 14:08:51;;;;;;;28.45;25.35;;;;;;;;;;5052773;28;20087;-71
2022/09/14 14:11:25;;;;;;;26.25;22.58;;;;;;;;;;5053156;28;20497;-70
2022/09/14 14:13:51;;;;;;;28.98;25.88;;;;;;;;;;5053395;28;20028;-70
2022/09/14 14:16:17;;;;;;;28.75;25.25;;;;;;;;;;5053246;28;20043;-72
2022/09/14 14:18:49;;;;;;;28.98;25.60;;;;;;;;;;5052231;28;20036;-72
2022/09/14 14:21:21;;;;;;;29.20;25.42;;;;;;;;;;5056813;28;20016;-69
2022/09/14 14:23:48;;;;;;;30.40;25.55;;;;;;;;;;5072192;28;20028;-72
2022/09/14 14:26:17;;;;;;;35.75;27.08;;;;;;;;;;5053478;28;20017;-73
2022/09/14 14:28:43;;;;;;;33.40;27.80;;;;;;;;;;5052036;28;20415;-72
2022/09/14 14:31:14;;;;;;;36.72;29.27;;;;;;;;;;5052166;28;20527;-72
2022/09/14 14:33:47;;;;;;;28.75;25.48;;;;;;;;;;5050279;28;20032;-73
2022/09/14 14:36:13;;;;;;;32.35;27.55;;;;;;;;;;5048862;28;20356;-72
2022/09/14 14:38:41;;;;;;;28.42;24.08;;;;;;;;;;5049663;28;20610;-73